Flight Track Log - Related Links

Times and Time Zones

All times are in EDT time to prevent confusion due to time zone crossing. See the SWA34 flight status page for this flight to view local times or setup timezone preferences in your user account.

Time Position Orientation Groundspeed Altitude Reporting Facility
EDT Latitude Longitude Course Direction KTS MPH feet Rate Location/Type
Sun 06:52:20 PM 36.2303 -95.9314 344° North 216 249 4,100  Level Kansas City Center
Sun 06:53:08 PM 36.2558 -95.8681 63° Northeast 241 277 6,600 3,545 Climbing Kansas City Center
Sun 06:54:10 PM 36.2928 -95.7875 60° Northeast 260 299 10,600 3,339 Climbing Kansas City Center
Sun 06:55:12 PM 36.3356 -95.6931 61° Northeast 302 348 13,500 3,145 Climbing Kansas City Center
Sun 06:56:14 PM 36.3969 -95.6008 50° Northeast 333 383 17,100 3,194 Climbing Kansas City Center
Sun 06:57:16 PM 36.4608 -95.5097 49° Northeast 344 396 20,100 2,806 Climbing Kansas City Center
Sun 06:58:18 PM 36.5222 -95.4042 54° Northeast 375 432 22,900 2,537 Climbing Kansas City Center
Sun 06:59:19 PM 36.5725 -95.2817 63° Northeast 394 453 25,300 2,244 Climbing Kansas City Center
Sun 07:00:21 PM 36.6297 -95.1428 63° Northeast 411 473 27,500 2,032 Climbing Kansas City Center
Sun 07:01:23 PM 36.6847 -95.0086 63° Northeast 427 491 29,500 1,790 Climbing Kansas City Center
Sun 07:02:25 PM 36.7414 -94.8694 63° Northeast 440 506 31,200 1,902 Climbing Kansas City Center
Sun 07:03:26 PM 36.7994 -94.7289 63° Northeast 451 519 33,400 2,195 Climbing Kansas City Center
Sun 07:04:28 PM 36.8669 -94.5633 63° Northeast 447 514 35,700 1,742 Climbing Kansas City Center
Sun 07:05:30 PM 36.9231 -94.4269 63° Northeast 443 510 37,000 1,113 Climbing Kansas City Center
Sun 07:06:32 PM 36.9800 -94.2867 63° Northeast 449 517 38,000 968 Climbing Kansas City Center
Sun 07:07:34 PM 37.0361 -94.1436 64° Northeast 453 521 39,000 484 Climbing Kansas City Center
Sun 07:08:36 PM 37.0917 -94.0056 63° Northeast 446 513 39,000  Level Kansas City Center
Sun 07:09:38 PM 37.1461 -93.8711 63° Northeast 443 510 39,000  Level Kansas City Center
Sun 07:10:40 PM 37.2003 -93.7331 64° Northeast 440 506 39,000  Level Kansas City Center
Sun 07:11:42 PM 37.2636 -93.5678 64° Northeast 438 504 39,000  Level Kansas City Center
Sun 07:12:43 PM 37.3183 -93.4319 63° Northeast 436 502 39,000  Level Kansas City Center
Sun 07:13:45 PM 37.3797 -93.3025 59° Northeast 433 498 39,000  Level Kansas City Center
Sun 07:14:47 PM 37.4694 -93.2033 41° Northeast 430 495 39,000 -97 Level Kansas City Center
Sun 07:15:49 PM 37.5578 -93.1011 43° Northeast 429 494 38,800 -585 Descending Kansas City Center
Sun 07:16:50 PM 37.6472 -92.9981 42° Northeast 432 497 37,800 -941 Descending Kansas City Center
Sun 07:18:54 PM 37.8164 -92.7983 43° Northeast 418 481 35,900 -903 Descending Kansas City Center
Sun 07:19:56 PM 37.9164 -92.6722 45° Northeast 418 481 35,000 -1,403 Descending Kansas City Center
Sun 07:20:58 PM 37.9781 -92.5567 56° Northeast 414 476 33,000 -2,081 Descending Kansas City Center
Sun 07:22:00 PM 38.0389 -92.4422 56° Northeast 399 459 30,700 -1,659 Descending Kansas City Center
Sun 07:23:01 PM 38.1028 -92.3297 54° Northeast 396 456 29,600 -1,024 Descending Kansas City Center
Sun 07:24:03 PM 38.1619 -92.2167 56° Northeast 390 449 28,600 -1,016 Descending Kansas City Center
Sun 07:25:05 PM 38.2286 -92.0903 56° Northeast 383 441 27,500 -1,065 Descending Kansas City Center
Sun 07:26:07 PM 38.2869 -91.9789 56° Northeast 378 435 26,400 -968 Descending Kansas City Center
Sun 07:27:09 PM 38.3450 -91.8697 56° Northeast 372 428 25,500 -1,452 Descending Kansas City Center
Sun 07:28:11 PM 38.4033 -91.7581 56° Northeast 375 432 23,400 -2,488 Descending Kansas City Center
Sun 07:29:12 PM 38.4639 -91.6433 56° Northeast 384 442 20,400 -2,585 Descending Kansas City Center
Sun 07:30:14 PM 38.5228 -91.5317 56° Northeast 381 438 18,100 -2,274 Descending Kansas City Center
Sun 07:31:16 PM 38.5881 -91.4056 56° Northeast 360 414 15,700 -1,597 Descending Kansas City Center
Sun 07:32:18 PM 38.6322 -91.3208 56° Northeast 348 400 14,800 -1,016 Descending Kansas City Center
Sun 07:33:20 PM 38.6903 -91.2050 57° Northeast 327 376 13,600 -1,065 Descending Kansas City Center
Sun 07:34:22 PM 38.6958 -91.0897 86° East 324 373 12,600 -976 Descending Kansas City Center
Sun 07:35:23 PM 38.6994 -90.9772 88° East 320 368 11,600 -976 Descending Kansas City Center
Sun 07:36:25 PM 38.7019 -90.8678 88° East 312 359 10,600 -774 Descending Kansas City Center
Sun 07:37:27 PM 38.7050 -90.7672 88° East 299 344 10,000 -484 Descending Kansas City Center
Sun 07:38:29 PM 38.7075 -90.6725 88° East 281 323 9,600 -677 Descending Kansas City Center
Sun 07:39:31 PM 38.7122 -90.5794 86° East 270 311 8,600 -968 Descending Kansas City Center
Sun 07:40:33 PM 38.6906 -90.4772 105° East 262 302 7,600 -829 Descending Kansas City Center
Sun 07:41:34 PM 38.6558 -90.4083 123° Southeast 247 284 6,900 -829 Descending Kansas City Center
Sun 07:42:36 PM 38.6233 -90.3317 118° Southeast 235 270 5,900 -871 Descending Kansas City Center
Sun 07:43:38 PM 38.6033 -90.2686 112° Southeast 224 258 5,100 -1,113 Descending Kansas City Center
Sun 07:44:40 PM 38.6278 -90.2022 65° Northeast 205 236 3,600 -1,268 Descending Kansas City Center
Sun 07:45:41 PM 38.6769 -90.2147 349° North 215 247 2,500 -878 Descending Kansas City Center
Sun 07:46:43 PM 38.7061 -90.2744 302° West 208 239 1,800 -726 Descending Kansas City Center
Sun 07:47:45 PM 38.7278 -90.3189 302° West 171 197 1,000 -581 Descending Kansas City Center
Sun 07:48:47 PM 38.7522 -90.3664 303° West 158 182 600 -387 Descending Kansas City Center

Login

Don't have an account? Register now (free) for customized features, flight alerts, and more!